sensor_id;sensor_type;location;lat;lon;timestamp;P1;durP1;ratioP1;P2;durP2;ratioP2
51758;SDS011;66684;47.568;18.734;2023-04-06T00:02:09;16.67;;;9.27;;
51758;SDS011;66684;47.568;18.734;2023-04-06T00:04:35;13.80;;;7.57;;
51758;SDS011;66684;47.568;18.734;2023-04-06T00:07:01;17.05;;;9.88;;
51758;SDS011;66684;47.568;18.734;2023-04-06T00:09:27;18.20;;;8.73;;
51758;SDS011;66684;47.568;18.734;2023-04-06T00:11:53;33.20;;;17.08;;
51758;SDS011;66684;47.568;18.734;2023-04-06T00:14:19;21.02;;;9.90;;
51758;SDS011;66684;47.568;18.734;2023-04-06T00:16:45;48.40;;;22.50;;
51758;SDS011;66684;47.568;18.734;2023-04-06T00:19:11;26.92;;;12.10;;
51758;SDS011;66684;47.568;18.734;2023-04-06T00:21:37;14.43;;;7.55;;
51758;SDS011;66684;47.568;18.734;2023-04-06T00:24:03;14.80;;;7.57;;
51758;SDS011;66684;47.568;18.734;2023-04-06T00:26:29;13.75;;;7.85;;
51758;SDS011;66684;47.568;18.734;2023-04-06T00:28:55;15.23;;;7.30;;
51758;SDS011;66684;47.568;18.734;2023-04-06T00:31:21;14.65;;;7.32;;
51758;SDS011;66684;47.568;18.734;2023-04-06T00:33:48;14.65;;;7.62;;
51758;SDS011;66684;47.568;18.734;2023-04-06T00:36:14;12.93;;;7.50;;
51758;SDS011;66684;47.568;18.734;2023-04-06T00:38:40;14.65;;;7.65;;
51758;SDS011;66684;47.568;18.734;2023-04-06T00:41:06;13.15;;;7.60;;
51758;SDS011;66684;47.568;18.734;2023-04-06T00:43:32;15.45;;;8.18;;
51758;SDS011;66684;47.568;18.734;2023-04-06T00:45:58;15.93;;;7.60;;
51758;SDS011;66684;47.568;18.734;2023-04-06T00:48:23;16.02;;;7.90;;
51758;SDS011;66684;47.568;18.734;2023-04-06T00:50:49;13.13;;;7.90;;
51758;SDS011;66684;47.568;18.734;2023-04-06T00:53:15;13.85;;;8.18;;
51758;SDS011;66684;47.568;18.734;2023-04-06T00:55:41;13.77;;;8.15;;
51758;SDS011;66684;47.568;18.734;2023-04-06T00:58:07;14.82;;;7.70;;
51758;SDS011;66684;47.568;18.734;2023-04-06T01:00:33;13.50;;;7.53;;
51758;SDS011;66684;47.568;18.734;2023-04-06T01:02:59;14.25;;;7.78;;
51758;SDS011;66684;47.568;18.734;2023-04-06T01:05:25;16.50;;;8.43;;
51758;SDS011;66684;47.568;18.734;2023-04-06T01:07:51;16.67;;;8.38;;
51758;SDS011;66684;47.568;18.734;2023-04-06T01:10:26;17.52;;;8.40;;
51758;SDS011;66684;47.568;18.734;2023-04-06T01:12:53;17.80;;;8.23;;
51758;SDS011;66684;47.568;18.734;2023-04-06T01:15:19;19.08;;;8.40;;
51758;SDS011;66684;47.568;18.734;2023-04-06T01:17:46;20.30;;;8.73;;
51758;SDS011;66684;47.568;18.734;2023-04-06T01:20:12;16.60;;;8.85;;
51758;SDS011;66684;47.568;18.734;2023-04-06T01:22:38;14.60;;;8.50;;
51758;SDS011;66684;47.568;18.734;2023-04-06T01:25:04;14.87;;;8.40;;
51758;SDS011;66684;47.568;18.734;2023-04-06T01:27:31;14.90;;;7.53;;
51758;SDS011;66684;47.568;18.734;2023-04-06T01:29:57;14.75;;;8.18;;
51758;SDS011;66684;47.568;18.734;2023-04-06T01:32:22;16.20;;;8.23;;
51758;SDS011;66684;47.568;18.734;2023-04-06T01:34:48;15.07;;;8.13;;
51758;SDS011;66684;47.568;18.734;2023-04-06T01:37:14;14.38;;;7.70;;
51758;SDS011;66684;47.568;18.734;2023-04-06T01:39:41;15.82;;;8.65;;
51758;SDS011;66684;47.568;18.734;2023-04-06T01:42:08;14.65;;;7.62;;
51758;SDS011;66684;47.568;18.734;2023-04-06T01:44:34;13.32;;;8.27;;
51758;SDS011;66684;47.568;18.734;2023-04-06T01:47:00;17.08;;;8.20;;
51758;SDS011;66684;47.568;18.734;2023-04-06T01:49:26;15.23;;;8.02;;
51758;SDS011;66684;47.568;18.734;2023-04-06T01:51:52;13.57;;;7.85;;
51758;SDS011;66684;47.568;18.734;2023-04-06T01:54:19;13.65;;;7.97;;
51758;SDS011;66684;47.568;18.734;2023-04-06T01:56:45;16.60;;;8.70;;
51758;SDS011;66684;47.568;18.734;2023-04-06T01:59:12;14.90;;;7.62;;
51758;SDS011;66684;47.568;18.734;2023-04-06T02:01:38;12.63;;;7.22;;
51758;SDS011;66684;47.568;18.734;2023-04-06T02:04:04;14.73;;;7.50;;
51758;SDS011;66684;47.568;18.734;2023-04-06T02:06:30;15.35;;;8.02;;
51758;SDS011;66684;47.568;18.734;2023-04-06T02:08:56;14.55;;;8.35;;
51758;SDS011;66684;47.568;18.734;2023-04-06T02:11:22;16.20;;;8.27;;
51758;SDS011;66684;47.568;18.734;2023-04-06T02:13:48;14.82;;;8.55;;
51758;SDS011;66684;47.568;18.734;2023-04-06T02:16:14;16.90;;;8.00;;
51758;SDS011;66684;47.568;18.734;2023-04-06T02:18:41;13.32;;;7.85;;
51758;SDS011;66684;47.568;18.734;2023-04-06T02:21:07;16.12;;;8.52;;
51758;SDS011;66684;47.568;18.734;2023-04-06T02:23:33;16.37;;;8.25;;
51758;SDS011;66684;47.568;18.734;2023-04-06T02:25:58;14.07;;;7.90;;
51758;SDS011;66684;47.568;18.734;2023-04-06T02:28:24;16.17;;;7.85;;
51758;SDS011;66684;47.568;18.734;2023-04-06T02:30:50;16.62;;;8.13;;
51758;SDS011;66684;47.568;18.734;2023-04-06T02:33:16;14.10;;;8.02;;
51758;SDS011;66684;47.568;18.734;2023-04-06T02:35:43;15.65;;;7.28;;
51758;SDS011;66684;47.568;18.734;2023-04-06T02:38:10;18.42;;;8.77;;
51758;SDS011;66684;47.568;18.734;2023-04-06T02:40:35;13.25;;;7.55;;
51758;SDS011;66684;47.568;18.734;2023-04-06T02:43:01;15.05;;;8.40;;
51758;SDS011;66684;47.568;18.734;2023-04-06T02:45:27;14.13;;;7.70;;
51758;SDS011;66684;47.568;18.734;2023-04-06T02:47:53;15.18;;;8.20;;
51758;SDS011;66684;47.568;18.734;2023-04-06T02:50:19;14.87;;;7.80;;
51758;SDS011;66684;47.568;18.734;2023-04-06T02:52:45;15.43;;;8.15;;
51758;SDS011;66684;47.568;18.734;2023-04-06T02:55:11;16.83;;;8.20;;
51758;SDS011;66684;47.568;18.734;2023-04-06T02:57:37;16.37;;;8.05;;
51758;SDS011;66684;47.568;18.734;2023-04-06T03:00:03;16.87;;;8.15;;
51758;SDS011;66684;47.568;18.734;2023-04-06T03:02:29;19.25;;;8.43;;
51758;SDS011;66684;47.568;18.734;2023-04-06T03:04:55;15.82;;;8.23;;
51758;SDS011;66684;47.568;18.734;2023-04-06T03:07:21;15.38;;;8.18;;
51758;SDS011;66684;47.568;18.734;2023-04-06T03:09:47;13.70;;;8.40;;
51758;SDS011;66684;47.568;18.734;2023-04-06T03:12:13;13.52;;;8.25;;
51758;SDS011;66684;47.568;18.734;2023-04-06T03:14:39;18.60;;;8.27;;
51758;SDS011;66684;47.568;18.734;2023-04-06T03:17:05;15.68;;;7.95;;
51758;SDS011;66684;47.568;18.734;2023-04-06T03:19:31;15.93;;;8.30;;
51758;SDS011;66684;47.568;18.734;2023-04-06T03:21:57;16.65;;;8.60;;
51758;SDS011;66684;47.568;18.734;2023-04-06T03:24:23;14.35;;;7.62;;
51758;SDS011;66684;47.568;18.734;2023-04-06T03:26:49;13.80;;;7.95;;
51758;SDS011;66684;47.568;18.734;2023-04-06T03:29:14;20.00;;;9.07;;
51758;SDS011;66684;47.568;18.734;2023-04-06T03:31:40;16.02;;;8.63;;
51758;SDS011;66684;47.568;18.734;2023-04-06T03:34:06;22.80;;;9.63;;
51758;SDS011;66684;47.568;18.734;2023-04-06T03:36:33;21.10;;;9.35;;
51758;SDS011;66684;47.568;18.734;2023-04-06T03:38:59;17.50;;;8.52;;
51758;SDS011;66684;47.568;18.734;2023-04-06T03:41:25;20.37;;;8.68;;
51758;SDS011;66684;47.568;18.734;2023-04-06T03:43:52;16.60;;;9.05;;
51758;SDS011;66684;47.568;18.734;2023-04-06T03:46:18;22.08;;;8.95;;
51758;SDS011;66684;47.568;18.734;2023-04-06T03:48:44;17.25;;;9.70;;
51758;SDS011;66684;47.568;18.734;2023-04-06T03:51:11;24.35;;;13.80;;
51758;SDS011;66684;47.568;18.734;2023-04-06T03:53:37;28.60;;;13.10;;
51758;SDS011;66684;47.568;18.734;2023-04-06T03:56:03;24.33;;;12.35;;
51758;SDS011;66684;47.568;18.734;2023-04-06T03:58:29;18.30;;;11.43;;
51758;SDS011;66684;47.568;18.734;2023-04-06T04:00:55;22.20;;;9.82;;
51758;SDS011;66684;47.568;18.734;2023-04-06T04:03:20;23.25;;;11.12;;
51758;SDS011;66684;47.568;18.734;2023-04-06T04:05:49;18.27;;;9.15;;
51758;SDS011;66684;47.568;18.734;2023-04-06T04:08:15;15.30;;;8.90;;
51758;SDS011;66684;47.568;18.734;2023-04-06T04:10:41;21.00;;;9.40;;
51758;SDS011;66684;47.568;18.734;2023-04-06T04:13:07;22.35;;;8.85;;
51758;SDS011;66684;47.568;18.734;2023-04-06T04:15:33;21.37;;;9.82;;
51758;SDS011;66684;47.568;18.734;2023-04-06T04:17:59;17.42;;;9.07;;
51758;SDS011;66684;47.568;18.734;2023-04-06T04:20:25;18.52;;;8.70;;
51758;SDS011;66684;47.568;18.734;2023-04-06T04:22:51;17.87;;;8.85;;
51758;SDS011;66684;47.568;18.734;2023-04-06T04:25:19;18.25;;;8.50;;
51758;SDS011;66684;47.568;18.734;2023-04-06T04:27:45;15.93;;;8.40;;
51758;SDS011;66684;47.568;18.734;2023-04-06T04:30:11;21.10;;;9.80;;
51758;SDS011;66684;47.568;18.734;2023-04-06T04:32:37;22.87;;;10.57;;
51758;SDS011;66684;47.568;18.734;2023-04-06T04:35:03;25.80;;;11.55;;
51758;SDS011;66684;47.568;18.734;2023-04-06T04:37:29;32.22;;;15.90;;
51758;SDS011;66684;47.568;18.734;2023-04-06T04:39:55;27.05;;;13.68;;
51758;SDS011;66684;47.568;18.734;2023-04-06T04:42:21;29.55;;;14.02;;
51758;SDS011;66684;47.568;18.734;2023-04-06T04:44:47;23.77;;;12.10;;
51758;SDS011;66684;47.568;18.734;2023-04-06T04:47:13;21.10;;;11.05;;
51758;SDS011;66684;47.568;18.734;2023-04-06T04:49:39;19.65;;;10.65;;
51758;SDS011;66684;47.568;18.734;2023-04-06T04:52:05;22.15;;;11.27;;
51758;SDS011;66684;47.568;18.734;2023-04-06T04:54:30;20.58;;;10.70;;
51758;SDS011;66684;47.568;18.734;2023-04-06T04:56:56;21.30;;;11.15;;
51758;SDS011;66684;47.568;18.734;2023-04-06T04:59:22;19.95;;;10.77;;
51758;SDS011;66684;47.568;18.734;2023-04-06T05:01:48;17.85;;;10.50;;
51758;SDS011;66684;47.568;18.734;2023-04-06T05:04:14;19.60;;;10.70;;
51758;SDS011;66684;47.568;18.734;2023-04-06T05:06:40;21.40;;;12.07;;
51758;SDS011;66684;47.568;18.734;2023-04-06T05:09:06;23.33;;;11.68;;
51758;SDS011;66684;47.568;18.734;2023-04-06T05:11:32;18.02;;;10.77;;
51758;SDS011;66684;47.568;18.734;2023-04-06T05:13:58;22.10;;;11.60;;
51758;SDS011;66684;47.568;18.734;2023-04-06T05:16:24;23.52;;;12.05;;
51758;SDS011;66684;47.568;18.734;2023-04-06T05:18:50;23.67;;;12.45;;
51758;SDS011;66684;47.568;18.734;2023-04-06T05:21:16;21.65;;;11.55;;
51758;SDS011;66684;47.568;18.734;2023-04-06T05:23:42;20.50;;;10.80;;
51758;SDS011;66684;47.568;18.734;2023-04-06T05:26:08;16.75;;;9.13;;
51758;SDS011;66684;47.568;18.734;2023-04-06T05:28:34;15.98;;;9.57;;
51758;SDS011;66684;47.568;18.734;2023-04-06T05:31:01;18.30;;;9.80;;
51758;SDS011;66684;47.568;18.734;2023-04-06T05:33:27;17.52;;;9.50;;
51758;SDS011;66684;47.568;18.734;2023-04-06T05:35:53;18.77;;;9.43;;
51758;SDS011;66684;47.568;18.734;2023-04-06T05:38:18;29.02;;;15.75;;
51758;SDS011;66684;47.568;18.734;2023-04-06T05:40:44;28.52;;;20.45;;
51758;SDS011;66684;47.568;18.734;2023-04-06T05:43:10;20.45;;;13.18;;
51758;SDS011;66684;47.568;18.734;2023-04-06T05:45:36;17.85;;;10.30;;
51758;SDS011;66684;47.568;18.734;2023-04-06T05:48:02;16.30;;;9.63;;
51758;SDS011;66684;47.568;18.734;2023-04-06T05:50:28;17.10;;;9.90;;
51758;SDS011;66684;47.568;18.734;2023-04-06T05:52:54;16.02;;;9.20;;
51758;SDS011;66684;47.568;18.734;2023-04-06T05:55:20;23.25;;;9.95;;
51758;SDS011;66684;47.568;18.734;2023-04-06T05:57:46;15.50;;;9.48;;
51758;SDS011;66684;47.568;18.734;2023-04-06T06:00:12;22.55;;;10.57;;
51758;SDS011;66684;47.568;18.734;2023-04-06T06:02:39;19.73;;;10.02;;
51758;SDS011;66684;47.568;18.734;2023-04-06T06:05:05;22.27;;;9.68;;
51758;SDS011;66684;47.568;18.734;2023-04-06T06:07:31;23.98;;;10.70;;
51758;SDS011;66684;47.568;18.734;2023-04-06T06:09:57;18.45;;;10.23;;
51758;SDS011;66684;47.568;18.734;2023-04-06T06:12:23;19.95;;;9.98;;
51758;SDS011;66684;47.568;18.734;2023-04-06T06:14:49;25.67;;;10.00;;
51758;SDS011;66684;47.568;18.734;2023-04-06T06:17:15;15.60;;;9.23;;
51758;SDS011;66684;47.568;18.734;2023-04-06T06:19:41;18.60;;;9.68;;
51758;SDS011;66684;47.568;18.734;2023-04-06T06:22:07;19.52;;;10.07;;
51758;SDS011;66684;47.568;18.734;2023-04-06T06:24:33;20.05;;;10.20;;
51758;SDS011;66684;47.568;18.734;2023-04-06T06:26:59;24.60;;;10.98;;
51758;SDS011;66684;47.568;18.734;2023-04-06T06:29:25;21.15;;;11.18;;
51758;SDS011;66684;47.568;18.734;2023-04-06T06:31:51;22.48;;;11.07;;
51758;SDS011;66684;47.568;18.734;2023-04-06T06:34:16;23.95;;;11.73;;
51758;SDS011;66684;47.568;18.734;2023-04-06T06:36:42;21.15;;;10.48;;
51758;SDS011;66684;47.568;18.734;2023-04-06T06:39:08;23.87;;;10.45;;
51758;SDS011;66684;47.568;18.734;2023-04-06T06:41:34;20.70;;;10.45;;
51758;SDS011;66684;47.568;18.734;2023-04-06T06:44:01;20.42;;;10.38;;
51758;SDS011;66684;47.568;18.734;2023-04-06T06:46:27;24.33;;;11.12;;
51758;SDS011;66684;47.568;18.734;2023-04-06T06:48:53;21.65;;;10.82;;
51758;SDS011;66684;47.568;18.734;2023-04-06T06:51:19;20.27;;;10.55;;
51758;SDS011;66684;47.568;18.734;2023-04-06T06:53:45;21.67;;;10.55;;
51758;SDS011;66684;47.568;18.734;2023-04-06T06:56:11;24.83;;;11.30;;
51758;SDS011;66684;47.568;18.734;2023-04-06T06:58:38;24.92;;;10.70;;
51758;SDS011;66684;47.568;18.734;2023-04-06T07:01:04;21.12;;;10.52;;
51758;SDS011;66684;47.568;18.734;2023-04-06T07:03:30;21.50;;;10.18;;
51758;SDS011;66684;47.568;18.734;2023-04-06T07:05:56;18.48;;;10.13;;
51758;SDS011;66684;47.568;18.734;2023-04-06T07:08:22;21.17;;;10.52;;
51758;SDS011;66684;47.568;18.734;2023-04-06T07:10:50;19.62;;;10.35;;
51758;SDS011;66684;47.568;18.734;2023-04-06T07:13:18;18.65;;;9.40;;
51758;SDS011;66684;47.568;18.734;2023-04-06T07:15:48;18.20;;;9.50;;
51758;SDS011;66684;47.568;18.734;2023-04-06T07:18:14;17.90;;;9.68;;
51758;SDS011;66684;47.568;18.734;2023-04-06T07:20:41;16.95;;;9.18;;
51758;SDS011;66684;47.568;18.734;2023-04-06T07:23:07;19.25;;;9.32;;
51758;SDS011;66684;47.568;18.734;2023-04-06T07:25:33;16.55;;;8.68;;
51758;SDS011;66684;47.568;18.734;2023-04-06T07:27:59;19.65;;;8.75;;
51758;SDS011;66684;47.568;18.734;2023-04-06T07:30:24;15.80;;;8.30;;
51758;SDS011;66684;47.568;18.734;2023-04-06T07:32:53;17.95;;;9.13;;
51758;SDS011;66684;47.568;18.734;2023-04-06T07:35:21;19.35;;;8.63;;
51758;SDS011;66684;47.568;18.734;2023-04-06T07:37:47;14.38;;;8.45;;
51758;SDS011;66684;47.568;18.734;2023-04-06T07:40:13;21.83;;;8.20;;
51758;SDS011;66684;47.568;18.734;2023-04-06T07:42:39;16.25;;;9.02;;
51758;SDS011;66684;47.568;18.734;2023-04-06T07:45:05;16.12;;;8.73;;
51758;SDS011;66684;47.568;18.734;2023-04-06T07:47:33;16.12;;;8.90;;
51758;SDS011;66684;47.568;18.734;2023-04-06T07:49:59;14.68;;;8.68;;
51758;SDS011;66684;47.568;18.734;2023-04-06T07:52:25;15.75;;;8.38;;
51758;SDS011;66684;47.568;18.734;2023-04-06T07:54:51;16.05;;;8.40;;
51758;SDS011;66684;47.568;18.734;2023-04-06T07:57:17;14.85;;;8.38;;
51758;SDS011;66684;47.568;18.734;2023-04-06T07:59:43;17.23;;;8.52;;
51758;SDS011;66684;47.568;18.734;2023-04-06T08:02:09;21.33;;;8.65;;
51758;SDS011;66684;47.568;18.734;2023-04-06T08:04:35;17.08;;;7.70;;
51758;SDS011;66684;47.568;18.734;2023-04-06T08:07:01;15.57;;;8.70;;
51758;SDS011;66684;47.568;18.734;2023-04-06T08:09:27;16.02;;;8.55;;
51758;SDS011;66684;47.568;18.734;2023-04-06T08:11:53;12.82;;;8.23;;
51758;SDS011;66684;47.568;18.734;2023-04-06T08:14:19;19.23;;;10.35;;
51758;SDS011;66684;47.568;18.734;2023-04-06T08:16:45;22.83;;;11.68;;
51758;SDS011;66684;47.568;18.734;2023-04-06T08:19:11;13.85;;;8.27;;
51758;SDS011;66684;47.568;18.734;2023-04-06T08:21:37;15.95;;;7.78;;
51758;SDS011;66684;47.568;18.734;2023-04-06T08:24:04;14.77;;;8.40;;
51758;SDS011;66684;47.568;18.734;2023-04-06T08:26:31;14.60;;;9.07;;
51758;SDS011;66684;47.568;18.734;2023-04-06T08:28:57;16.20;;;8.13;;
51758;SDS011;66684;47.568;18.734;2023-04-06T08:31:23;15.35;;;7.95;;
51758;SDS011;66684;47.568;18.734;2023-04-06T08:33:49;20.10;;;10.38;;
51758;SDS011;66684;47.568;18.734;2023-04-06T08:36:15;16.85;;;9.07;;
51758;SDS011;66684;47.568;18.734;2023-04-06T08:38:42;20.67;;;12.77;;
51758;SDS011;66684;47.568;18.734;2023-04-06T08:41:11;14.93;;;8.23;;
51758;SDS011;66684;47.568;18.734;2023-04-06T08:43:41;13.38;;;7.50;;
51758;SDS011;66684;47.568;18.734;2023-04-06T08:46:10;12.85;;;7.93;;
51758;SDS011;66684;47.568;18.734;2023-04-06T08:48:38;12.88;;;7.15;;
51758;SDS011;66684;47.568;18.734;2023-04-06T08:51:05;13.68;;;6.20;;
51758;SDS011;66684;47.568;18.734;2023-04-06T08:53:31;12.52;;;6.65;;
51758;SDS011;66684;47.568;18.734;2023-04-06T08:55:58;12.13;;;6.47;;
51758;SDS011;66684;47.568;18.734;2023-04-06T08:58:24;12.90;;;7.55;;
51758;SDS011;66684;47.568;18.734;2023-04-06T09:00:53;10.70;;;6.60;;
51758;SDS011;66684;47.568;18.734;2023-04-06T09:03:20;13.25;;;6.32;;
51758;SDS011;66684;47.568;18.734;2023-04-06T09:05:47;12.50;;;6.95;;
51758;SDS011;66684;47.568;18.734;2023-04-06T09:08:13;12.32;;;7.00;;
51758;SDS011;66684;47.568;18.734;2023-04-06T09:10:42;11.70;;;6.35;;
51758;SDS011;66684;47.568;18.734;2023-04-06T09:13:08;14.55;;;6.85;;
51758;SDS011;66684;47.568;18.734;2023-04-06T09:15:34;11.35;;;6.32;;
51758;SDS011;66684;47.568;18.734;2023-04-06T09:18:00;12.52;;;6.68;;
51758;SDS011;66684;47.568;18.734;2023-04-06T09:20:27;12.88;;;6.70;;
51758;SDS011;66684;47.568;18.734;2023-04-06T09:22:54;9.40;;;6.05;;
51758;SDS011;66684;47.568;18.734;2023-04-06T09:25:21;14.77;;;6.53;;
51758;SDS011;66684;47.568;18.734;2023-04-06T09:27:57;12.57;;;6.22;;
51758;SDS011;66684;47.568;18.734;2023-04-06T09:30:28;16.90;;;5.87;;
51758;SDS011;66684;47.568;18.734;2023-04-06T09:32:55;11.35;;;6.05;;
51758;SDS011;66684;47.568;18.734;2023-04-06T09:35:23;17.25;;;6.35;;
51758;SDS011;66684;47.568;18.734;2023-04-06T09:37:50;12.07;;;6.15;;
51758;SDS011;66684;47.568;18.734;2023-04-06T09:40:17;10.32;;;5.20;;
51758;SDS011;66684;47.568;18.734;2023-04-06T09:42:47;10.65;;;6.47;;
51758;SDS011;66684;47.568;18.734;2023-04-06T09:45:17;15.10;;;5.80;;
51758;SDS011;66684;47.568;18.734;2023-04-06T09:47:44;15.07;;;6.35;;
51758;SDS011;66684;47.568;18.734;2023-04-06T09:50:13;11.10;;;5.80;;
51758;SDS011;66684;47.568;18.734;2023-04-06T09:52:48;16.67;;;7.18;;
51758;SDS011;66684;47.568;18.734;2023-04-06T09:55:35;12.43;;;6.18;;
51758;SDS011;66684;47.568;18.734;2023-04-06T09:58:06;12.00;;;6.07;;
51758;SDS011;66684;47.568;18.734;2023-04-06T10:00:40;12.35;;;6.32;;
51758;SDS011;66684;47.568;18.734;2023-04-06T10:03:14;11.65;;;5.85;;
51758;SDS011;66684;47.568;18.734;2023-04-06T10:05:55;10.07;;;6.28;;
51758;SDS011;66684;47.568;18.734;2023-04-06T10:08:26;11.45;;;6.62;;
51758;SDS011;66684;47.568;18.734;2023-04-06T10:10:54;10.95;;;6.72;;
51758;SDS011;66684;47.568;18.734;2023-04-06T10:13:21;14.80;;;6.45;;
51758;SDS011;66684;47.568;18.734;2023-04-06T10:15:49;11.30;;;6.43;;
51758;SDS011;66684;47.568;18.734;2023-04-06T10:18:17;12.20;;;6.75;;
51758;SDS011;66684;47.568;18.734;2023-04-06T10:20:56;14.90;;;6.68;;
51758;SDS011;66684;47.568;18.734;2023-04-06T10:23:36;11.70;;;6.80;;
51758;SDS011;66684;47.568;18.734;2023-04-06T10:26:12;12.93;;;7.37;;
51758;SDS011;66684;47.568;18.734;2023-04-06T10:28:43;12.37;;;7.07;;
51758;SDS011;66684;47.568;18.734;2023-04-06T10:31:10;12.52;;;6.80;;
51758;SDS011;66684;47.568;18.734;2023-04-06T10:33:37;17.30;;;7.55;;
51758;SDS011;66684;47.568;18.734;2023-04-06T10:36:13;12.60;;;7.10;;
51758;SDS011;66684;47.568;18.734;2023-04-06T10:38:41;12.23;;;7.50;;
51758;SDS011;66684;47.568;18.734;2023-04-06T10:41:08;13.85;;;7.22;;
51758;SDS011;66684;47.568;18.734;2023-04-06T10:43:38;14.40;;;7.37;;
51758;SDS011;66684;47.568;18.734;2023-04-06T10:46:06;13.77;;;7.40;;
51758;SDS011;66684;47.568;18.734;2023-04-06T10:48:37;15.38;;;7.60;;
51758;SDS011;66684;47.568;18.734;2023-04-06T10:51:08;12.65;;;7.45;;
51758;SDS011;66684;47.568;18.734;2023-04-06T10:53:37;13.90;;;7.80;;
51758;SDS011;66684;47.568;18.734;2023-04-06T10:56:04;18.60;;;7.65;;
51758;SDS011;66684;47.568;18.734;2023-04-06T10:58:36;16.45;;;7.50;;
51758;SDS011;66684;47.568;18.734;2023-04-06T11:01:02;17.23;;;7.90;;
51758;SDS011;66684;47.568;18.734;2023-04-06T11:03:28;12.50;;;7.20;;
51758;SDS011;66684;47.568;18.734;2023-04-06T11:05:55;12.63;;;7.62;;
51758;SDS011;66684;47.568;18.734;2023-04-06T11:08:29;23.73;;;14.43;;
51758;SDS011;66684;47.568;18.734;2023-04-06T11:18:31;26.67;;;17.23;;
51758;SDS011;66684;47.568;18.734;2023-04-06T11:20:57;17.92;;;9.70;;
51758;SDS011;66684;47.568;18.734;2023-04-06T11:23:23;12.95;;;7.20;;
51758;SDS011;66684;47.568;18.734;2023-04-06T11:25:53;14.70;;;7.50;;
51758;SDS011;66684;47.568;18.734;2023-04-06T11:28:19;11.63;;;6.72;;
51758;SDS011;66684;47.568;18.734;2023-04-06T11:30:46;12.32;;;6.20;;
51758;SDS011;66684;47.568;18.734;2023-04-06T11:33:19;11.77;;;6.15;;
51758;SDS011;66684;47.568;18.734;2023-04-06T11:35:46;10.98;;;5.87;;
51758;SDS011;66684;47.568;18.734;2023-04-06T11:38:12;10.38;;;6.35;;
51758;SDS011;66684;47.568;18.734;2023-04-06T11:40:38;12.30;;;6.20;;
51758;SDS011;66684;47.568;18.734;2023-04-06T11:43:04;12.35;;;5.97;;
51758;SDS011;66684;47.568;18.734;2023-04-06T11:45:41;11.32;;;6.70;;
51758;SDS011;66684;47.568;18.734;2023-04-06T11:48:17;20.85;;;6.93;;
51758;SDS011;66684;47.568;18.734;2023-04-06T11:50:46;14.43;;;6.70;;
51758;SDS011;66684;47.568;18.734;2023-04-06T11:53:14;10.98;;;6.28;;
51758;SDS011;66684;47.568;18.734;2023-04-06T11:55:40;11.02;;;6.60;;
51758;SDS011;66684;47.568;18.734;2023-04-06T11:58:06;19.00;;;7.32;;
51758;SDS011;66684;47.568;18.734;2023-04-06T12:00:32;10.27;;;6.05;;
51758;SDS011;66684;47.568;18.734;2023-04-06T12:03:00;12.05;;;6.72;;
51758;SDS011;66684;47.568;18.734;2023-04-06T12:05:26;10.80;;;6.18;;
51758;SDS011;66684;47.568;18.734;2023-04-06T12:07:52;11.38;;;6.70;;
51758;SDS011;66684;47.568;18.734;2023-04-06T12:10:18;19.90;;;12.52;;
51758;SDS011;66684;47.568;18.734;2023-04-06T12:12:44;11.27;;;6.60;;
51758;SDS011;66684;47.568;18.734;2023-04-06T12:15:10;15.73;;;10.20;;
51758;SDS011;66684;47.568;18.734;2023-04-06T12:17:36;12.18;;;6.87;;
51758;SDS011;66684;47.568;18.734;2023-04-06T12:20:02;11.88;;;6.62;;
51758;SDS011;66684;47.568;18.734;2023-04-06T12:22:28;14.15;;;7.80;;
51758;SDS011;66684;47.568;18.734;2023-04-06T12:24:54;11.32;;;6.37;;
51758;SDS011;66684;47.568;18.734;2023-04-06T12:27:20;12.48;;;6.20;;
51758;SDS011;66684;47.568;18.734;2023-04-06T12:29:46;14.35;;;6.35;;
51758;SDS011;66684;47.568;18.734;2023-04-06T12:32:12;13.45;;;5.93;;
51758;SDS011;66684;47.568;18.734;2023-04-06T12:34:38;11.50;;;6.35;;
51758;SDS011;66684;47.568;18.734;2023-04-06T12:37:04;10.40;;;6.03;;
51758;SDS011;66684;47.568;18.734;2023-04-06T12:39:30;11.07;;;6.25;;
51758;SDS011;66684;47.568;18.734;2023-04-06T12:41:57;16.75;;;6.18;;
51758;SDS011;66684;47.568;18.734;2023-04-06T12:44:23;10.07;;;6.20;;
51758;SDS011;66684;47.568;18.734;2023-04-06T12:46:49;10.48;;;6.00;;
51758;SDS011;66684;47.568;18.734;2023-04-06T12:49:15;11.15;;;6.15;;
51758;SDS011;66684;47.568;18.734;2023-04-06T12:51:44;11.27;;;5.87;;
51758;SDS011;66684;47.568;18.734;2023-04-06T12:54:09;9.57;;;5.68;;
51758;SDS011;66684;47.568;18.734;2023-04-06T12:56:37;10.38;;;5.55;;
51758;SDS011;66684;47.568;18.734;2023-04-06T12:59:03;11.93;;;5.43;;
51758;SDS011;66684;47.568;18.734;2023-04-06T13:01:29;10.75;;;5.95;;
51758;SDS011;66684;47.568;18.734;2023-04-06T13:03:55;10.93;;;5.78;;
51758;SDS011;66684;47.568;18.734;2023-04-06T13:06:22;7.68;;;5.60;;
51758;SDS011;66684;47.568;18.734;2023-04-06T13:08:48;11.00;;;5.37;;
51758;SDS011;66684;47.568;18.734;2023-04-06T13:11:15;9.57;;;5.45;;
51758;SDS011;66684;47.568;18.734;2023-04-06T13:13:41;12.05;;;5.37;;
51758;SDS011;66684;47.568;18.734;2023-04-06T13:16:07;9.63;;;5.57;;
51758;SDS011;66684;47.568;18.734;2023-04-06T13:18:34;10.55;;;6.00;;
51758;SDS011;66684;47.568;18.734;2023-04-06T13:21:02;11.25;;;5.35;;
51758;SDS011;66684;47.568;18.734;2023-04-06T13:23:28;11.20;;;5.30;;
51758;SDS011;66684;47.568;18.734;2023-04-06T13:25:59;12.35;;;5.15;;
51758;SDS011;66684;47.568;18.734;2023-04-06T13:28:27;11.02;;;5.85;;
51758;SDS011;66684;47.568;18.734;2023-04-06T13:30:53;11.60;;;5.90;;
51758;SDS011;66684;47.568;18.734;2023-04-06T13:33:19;16.42;;;7.55;;
51758;SDS011;66684;47.568;18.734;2023-04-06T13:35:46;10.20;;;6.57;;
51758;SDS011;66684;47.568;18.734;2023-04-06T13:38:12;23.17;;;15.73;;
51758;SDS011;66684;47.568;18.734;2023-04-06T13:40:41;9.40;;;6.10;;
51758;SDS011;66684;47.568;18.734;2023-04-06T13:43:07;9.48;;;4.80;;
51758;SDS011;66684;47.568;18.734;2023-04-06T13:45:33;12.55;;;5.60;;
51758;SDS011;66684;47.568;18.734;2023-04-06T13:47:59;8.85;;;5.80;;
51758;SDS011;66684;47.568;18.734;2023-04-06T13:50:26;7.97;;;5.00;;
51758;SDS011;66684;47.568;18.734;2023-04-06T13:52:52;8.45;;;4.82;;
51758;SDS011;66684;47.568;18.734;2023-04-06T13:55:18;8.63;;;5.18;;
51758;SDS011;66684;47.568;18.734;2023-04-06T13:57:44;9.98;;;5.10;;
51758;SDS011;66684;47.568;18.734;2023-04-06T14:00:10;11.10;;;4.75;;
51758;SDS011;66684;47.568;18.734;2023-04-06T14:02:38;14.85;;;4.93;;
51758;SDS011;66684;47.568;18.734;2023-04-06T14:05:05;9.32;;;4.97;;
51758;SDS011;66684;47.568;18.734;2023-04-06T14:07:31;7.32;;;5.10;;
51758;SDS011;66684;47.568;18.734;2023-04-06T14:09:57;11.88;;;5.50;;
51758;SDS011;66684;47.568;18.734;2023-04-06T14:12:23;8.10;;;4.68;;
51758;SDS011;66684;47.568;18.734;2023-04-06T14:14:49;9.05;;;5.15;;
51758;SDS011;66684;47.568;18.734;2023-04-06T14:17:15;11.15;;;5.25;;
51758;SDS011;66684;47.568;18.734;2023-04-06T14:19:41;9.95;;;5.28;;
51758;SDS011;66684;47.568;18.734;2023-04-06T14:22:08;9.75;;;5.05;;
51758;SDS011;66684;47.568;18.734;2023-04-06T14:24:34;8.15;;;5.03;;
51758;SDS011;66684;47.568;18.734;2023-04-06T14:27:01;9.38;;;5.20;;